createdAt,value
2017-12-24T00:00:38.082Z,20.83
2017-12-24T00:03:06.434Z,22.70
2017-12-24T00:05:34.768Z,19.50
2017-12-24T00:08:03.110Z,19.73
2017-12-24T00:10:31.432Z,21.60
2017-12-24T00:12:59.817Z,20.95
2017-12-24T00:15:28.141Z,21.85
2017-12-24T00:17:56.486Z,20.15
2017-12-24T00:20:24.815Z,21.23
2017-12-24T00:22:53.139Z,22.40
2017-12-24T00:25:21.486Z,20.25
2017-12-24T00:27:49.813Z,21.98
2017-12-24T00:30:18.158Z,20.42
2017-12-24T00:32:46.491Z,20.88
2017-12-24T00:35:14.860Z,20.25
2017-12-24T00:37:43.178Z,20.83
2017-12-24T00:40:11.527Z,20.58
2017-12-24T00:42:39.850Z,20.40
2017-12-24T00:45:08.194Z,22.20
2017-12-24T00:47:36.527Z,23.38
2017-12-24T00:50:04.871Z,23.85
2017-12-24T00:52:33.202Z,22.35
2017-12-24T00:55:01.545Z,22.92
2017-12-24T00:57:29.878Z,22.80
2017-12-24T00:59:58.233Z,22.65
2017-12-24T01:02:26.558Z,21.35
2017-12-24T01:04:54.911Z,23.10
2017-12-24T01:07:23.234Z,24.98
2017-12-24T01:09:51.590Z,25.67
2017-12-24T01:12:19.979Z,24.42
2017-12-24T01:14:48.326Z,25.33
2017-12-24T01:17:16.718Z,25.20
2017-12-24T01:19:45.067Z,25.40
2017-12-24T01:22:13.394Z,25.48
2017-12-24T01:24:41.750Z,25.80
2017-12-24T01:27:10.073Z,25.33
2017-12-24T01:29:38.426Z,22.35
2017-12-24T01:32:06.747Z,23.85
2017-12-24T01:34:35.099Z,23.60
2017-12-24T01:37:03.422Z,22.23
2017-12-24T01:39:31.765Z,26.15
2017-12-24T01:42:00.103Z,25.62
2017-12-24T01:44:28.445Z,26.30
2017-12-24T01:46:56.783Z,24.48
2017-12-24T01:49:25.126Z,21.60
2017-12-24T01:51:53.454Z,24.05
2017-12-24T01:54:21.812Z,23.17
2017-12-24T01:56:50.146Z,24.02
2017-12-24T01:59:18.511Z,23.55
2017-12-24T02:01:46.827Z,21.73
2017-12-24T02:04:15.178Z,21.50
2017-12-24T02:06:43.502Z,23.92
2017-12-24T02:09:11.855Z,22.70
2017-12-24T02:11:40.186Z,22.27
2017-12-24T02:14:08.554Z,20.70
2017-12-24T02:16:36.873Z,22.27
2017-12-24T02:19:05.226Z,23.20
2017-12-24T02:21:33.563Z,23.50
2017-12-24T02:24:01.894Z,20.55
2017-12-24T02:26:30.275Z,22.73
2017-12-24T02:28:58.606Z,21.60
2017-12-24T02:31:26.963Z,23.15
2017-12-24T02:33:55.290Z,23.12
2017-12-24T02:36:23.638Z,23.90
2017-12-24T02:38:51.966Z,25.17
2017-12-24T02:41:20.314Z,23.35
2017-12-24T02:43:48.685Z,23.60
2017-12-24T02:46:17.031Z,25.25
2017-12-24T02:48:45.359Z,25.83
2017-12-24T02:51:13.719Z,26.40
2017-12-24T02:53:42.050Z,26.67
2017-12-24T02:56:10.393Z,27.13
2017-12-24T02:58:38.726Z,26.58
2017-12-24T03:01:07.078Z,25.33
2017-12-24T03:03:35.401Z,25.12
2017-12-24T03:06:03.750Z,24.83
2017-12-24T03:08:32.130Z,25.35
2017-12-24T03:11:00.485Z,27.40
2017-12-24T03:13:28.813Z,28.67
2017-12-24T03:15:57.167Z,30.12
2017-12-24T03:18:25.502Z,28.35
2017-12-24T03:20:53.845Z,27.50
2017-12-24T03:23:22.174Z,27.10
2017-12-24T03:25:50.547Z,28.50
2017-12-24T03:28:18.877Z,28.70
2017-12-24T03:30:47.227Z,29.70
2017-12-24T03:33:15.561Z,30.17
2017-12-24T03:35:43.909Z,27.45
2017-12-24T03:38:12.238Z,26.83
2017-12-24T03:40:40.599Z,28.12
2017-12-24T03:43:08.935Z,27.98
2017-12-24T03:45:37.285Z,29.42
2017-12-24T03:48:05.617Z,29.02
2017-12-24T03:50:33.974Z,28.75
2017-12-24T03:53:02.306Z,29.80
2017-12-24T03:55:30.654Z,28.60
2017-12-24T03:57:59.114Z,28.87
2017-12-24T04:00:27.459Z,29.85
2017-12-24T04:02:55.823Z,30.27
2017-12-24T04:05:24.184Z,29.25
2017-12-24T04:07:52.509Z,29.80
2017-12-24T04:10:20.862Z,29.20
2017-12-24T04:12:49.194Z,28.33
2017-12-24T04:15:17.542Z,29.55
2017-12-24T04:17:45.870Z,28.33
2017-12-24T04:20:14.227Z,27.52
2017-12-24T04:22:42.558Z,25.80
2017-12-24T04:25:10.890Z,28.90
2017-12-24T04:27:39.246Z,26.70
2017-12-24T04:30:07.573Z,26.23
2017-12-24T04:32:35.939Z,24.92
2017-12-24T04:35:04.270Z,25.98
2017-12-24T04:37:32.617Z,26.17
2017-12-24T04:40:00.948Z,26.92
2017-12-24T04:42:29.302Z,27.25
2017-12-24T04:44:57.629Z,25.37
2017-12-24T04:47:25.978Z,26.48
2017-12-24T04:49:54.308Z,28.77
2017-12-24T04:52:22.654Z,25.30
2017-12-24T04:54:50.979Z,25.88
2017-12-24T04:57:19.326Z,25.12
2017-12-24T04:59:47.694Z,26.02
2017-12-24T05:02:16.045Z,27.48
2017-12-24T05:04:44.381Z,27.45
2017-12-24T05:07:12.734Z,26.08
2017-12-24T05:09:41.080Z,24.95
2017-12-24T05:12:09.437Z,27.37
2017-12-24T05:14:37.797Z,25.48
2017-12-24T05:17:06.150Z,23.48
2017-12-24T05:19:34.478Z,26.00
2017-12-24T05:22:02.843Z,26.80
2017-12-24T05:24:31.174Z,24.87
2017-12-24T05:26:59.526Z,23.38
2017-12-24T05:29:27.857Z,24.42
2017-12-24T05:31:56.211Z,22.55
2017-12-24T05:34:24.538Z,25.85
2017-12-24T05:36:52.885Z,23.80
2017-12-24T05:39:21.213Z,20.70
2017-12-24T05:41:49.563Z,23.95
2017-12-24T05:44:17.894Z,23.80
2017-12-24T05:46:46.247Z,25.50
2017-12-24T05:49:14.582Z,21.80
2017-12-24T05:51:42.945Z,23.27
2017-12-24T05:54:11.274Z,22.10
2017-12-24T05:56:39.635Z,23.58
2017-12-24T05:59:07.987Z,23.60
2017-12-24T06:01:36.333Z,23.00
2017-12-24T06:04:04.666Z,23.27
2017-12-24T06:06:33.017Z,22.62
2017-12-24T06:09:01.359Z,24.35
2017-12-24T06:11:29.751Z,24.30
2017-12-24T06:13:58.078Z,24.33
2017-12-24T06:16:26.434Z,24.55
2017-12-24T06:18:54.774Z,24.52
2017-12-24T06:21:23.139Z,23.80
2017-12-24T06:23:51.474Z,25.30
2017-12-24T06:26:19.805Z,23.45
2017-12-24T06:28:48.161Z,25.55
2017-12-24T06:31:16.618Z,25.85
2017-12-24T06:33:44.974Z,26.30
2017-12-24T06:36:13.306Z,27.00
2017-12-24T06:38:41.670Z,25.40
2017-12-24T06:41:10.004Z,25.85
2017-12-24T06:43:38.362Z,23.83
2017-12-24T06:46:06.696Z,25.77
2017-12-24T06:48:35.062Z,22.90
2017-12-24T06:51:03.403Z,24.92
2017-12-24T06:53:31.754Z,24.73
2017-12-24T06:56:00.082Z,26.08
2017-12-24T06:58:28.458Z,20.55
2017-12-24T07:00:56.793Z,21.33
2017-12-24T07:03:25.147Z,21.20
2017-12-24T07:05:53.485Z,23.38
2017-12-24T07:08:21.841Z,22.42
2017-12-24T07:10:50.169Z,21.02
2017-12-24T07:13:18.530Z,21.45
2017-12-24T07:15:46.864Z,19.55
2017-12-24T07:18:15.214Z,21.65
2017-12-24T07:20:43.552Z,22.10
2017-12-24T07:23:11.898Z,22.20
2017-12-24T07:25:40.225Z,22.83
2017-12-24T07:28:08.578Z,21.85
2017-12-24T07:30:36.905Z,19.05
2017-12-24T07:33:05.257Z,21.83
2017-12-24T07:35:33.589Z,21.25
2017-12-24T07:38:01.943Z,22.20
2017-12-24T07:40:30.263Z,21.27
2017-12-24T07:42:58.617Z,21.03
2017-12-24T07:45:26.942Z,20.23
2017-12-24T07:47:55.294Z,21.50
2017-12-24T07:50:23.622Z,21.80
2017-12-24T07:52:51.967Z,21.77
2017-12-24T07:55:20.295Z,20.45
2017-12-24T07:57:48.650Z,23.97
2017-12-24T08:00:16.982Z,20.30
2017-12-24T08:02:45.330Z,23.80
2017-12-24T08:05:13.654Z,21.87
2017-12-24T08:07:42.007Z,22.57
2017-12-24T08:10:10.344Z,21.60
2017-12-24T08:12:38.690Z,19.83
2017-12-24T08:15:07.099Z,21.90
2017-12-24T08:17:36.099Z,20.95
2017-12-24T08:20:04.426Z,22.30
2017-12-24T08:22:32.778Z,20.50
2017-12-24T08:25:01.108Z,21.33
2017-12-24T08:27:29.433Z,20.02
2017-12-24T08:29:57.793Z,19.20
2017-12-24T08:32:26.123Z,20.48
2017-12-24T08:34:54.470Z,20.30
2017-12-24T08:37:23.706Z,21.10
2017-12-24T08:39:52.057Z,20.67
2017-12-24T08:42:20.432Z,21.17
2017-12-24T08:44:48.737Z,17.70
2017-12-24T08:47:17.251Z,19.70
2017-12-24T08:49:45.665Z,19.98
2017-12-24T08:52:14.042Z,20.13
2017-12-24T08:54:42.923Z,21.27
2017-12-24T08:57:11.384Z,20.13
2017-12-24T08:59:39.742Z,18.08
2017-12-24T09:02:08.082Z,20.10
2017-12-24T09:04:36.500Z,20.17
2017-12-24T09:07:04.815Z,20.70
2017-12-24T09:09:33.180Z,20.13
2017-12-24T09:12:01.529Z,18.70
2017-12-24T09:14:30.006Z,20.55
2017-12-24T09:16:58.349Z,18.77
2017-12-24T09:19:26.796Z,20.10
2017-12-24T09:21:55.158Z,17.40
2017-12-24T09:24:23.493Z,16.62
2017-12-24T09:26:51.851Z,19.23
2017-12-24T09:29:20.216Z,18.08
2017-12-24T09:31:48.587Z,17.90
2017-12-24T09:34:18.542Z,18.12
2017-12-24T09:36:46.931Z,17.37
2017-12-24T09:39:15.269Z,16.40
2017-12-24T09:41:44.192Z,17.27
2017-12-24T09:44:12.534Z,16.17
2017-12-24T09:46:40.875Z,17.85
2017-12-24T09:49:09.269Z,14.02
2017-12-24T09:51:37.653Z,13.70
2017-12-24T09:54:07.013Z,15.18
2017-12-24T09:56:35.354Z,15.50
2017-12-24T09:59:03.711Z,15.53
2017-12-24T10:01:32.055Z,14.00
2017-12-24T10:04:00.411Z,15.73
2017-12-24T10:06:28.752Z,15.48
2017-12-24T10:08:57.115Z,14.10
2017-12-24T10:11:25.451Z,11.77
2017-12-24T10:13:54.745Z,13.27
2017-12-24T10:16:23.082Z,13.10
2017-12-24T10:18:51.514Z,12.87
2017-12-24T10:21:20.174Z,12.00
2017-12-24T10:23:48.711Z,12.77
2017-12-24T10:26:17.061Z,11.77
2017-12-24T10:28:45.916Z,12.20
2017-12-24T10:31:15.318Z,11.35
2017-12-24T10:33:43.776Z,11.17
2017-12-24T10:36:13.106Z,11.02
2017-12-24T10:38:41.440Z,11.33
2017-12-24T10:41:09.786Z,12.20
2017-12-24T10:43:38.118Z,11.75
2017-12-24T10:46:06.496Z,11.10
2017-12-24T10:48:34.833Z,11.32
2017-12-24T10:51:03.178Z,9.37
2017-12-24T10:53:31.506Z,11.27
2017-12-24T10:56:00.843Z,10.55
2017-12-24T10:58:29.178Z,10.27
2017-12-24T11:00:57.538Z,11.27
2017-12-24T11:03:25.882Z,10.80
2017-12-24T11:05:55.639Z,11.45
2017-12-24T11:08:24.415Z,10.87
2017-12-24T11:10:52.766Z,10.65
2017-12-24T11:13:21.928Z,10.90
2017-12-24T11:15:50.330Z,12.00
2017-12-24T11:18:18.677Z,11.67
2017-12-24T11:20:47.035Z,11.63
2017-12-24T11:23:15.370Z,11.00
2017-12-24T11:25:44.736Z,12.07
2017-12-24T11:28:13.064Z,11.50
2017-12-24T11:30:41.414Z,12.43
2017-12-24T11:33:09.747Z,12.53
2017-12-24T11:35:39.102Z,10.30
2017-12-24T11:38:07.538Z,9.93
2017-12-24T11:40:36.329Z,9.77
2017-12-24T11:43:04.822Z,11.43
2017-12-24T11:45:33.202Z,9.40
2017-12-24T11:48:01.534Z,9.98
2017-12-24T11:50:29.932Z,9.93
2017-12-24T11:52:58.251Z,10.13
2017-12-24T11:55:26.615Z,10.20
2017-12-24T11:57:55.478Z,10.93
2017-12-24T12:00:23.834Z,10.07
2017-12-24T12:02:52.545Z,9.57
2017-12-24T12:05:21.194Z,8.20
2017-12-24T12:07:49.526Z,9.70
2017-12-24T12:10:17.883Z,10.10
2017-12-24T12:12:46.207Z,9.23
2017-12-24T12:15:15.263Z,10.65
2017-12-24T12:17:43.595Z,11.80
2017-12-24T12:20:11.974Z,9.83
2017-12-24T12:22:40.311Z,10.70
2017-12-24T12:25:08.670Z,9.83
2017-12-24T12:27:36.998Z,10.45
2017-12-24T12:30:05.350Z,11.50
2017-12-24T12:32:33.675Z,9.65
2017-12-24T12:35:02.043Z,9.20
2017-12-24T12:37:30.734Z,9.30
2017-12-24T12:39:59.103Z,10.47
2017-12-24T12:42:27.434Z,10.77
2017-12-24T12:44:55.862Z,10.97
2017-12-24T12:47:24.215Z,10.67
2017-12-24T12:49:52.566Z,9.90
2017-12-24T12:52:20.946Z,10.97
2017-12-24T12:54:49.270Z,10.70
2017-12-24T12:57:17.663Z,10.83
2017-12-24T12:59:46.000Z,10.33
2017-12-24T13:02:14.375Z,11.38
2017-12-24T13:04:42.690Z,11.43
2017-12-24T13:07:11.050Z,11.87
2017-12-24T13:09:39.457Z,11.80
2017-12-24T13:12:07.803Z,10.35
2017-12-24T13:14:36.122Z,9.70
2017-12-24T13:17:04.490Z,9.00
2017-12-24T13:19:32.839Z,9.30
2017-12-24T13:22:01.186Z,9.83
2017-12-24T13:24:29.515Z,9.38
2017-12-24T13:26:57.882Z,8.50
2017-12-24T13:29:26.218Z,10.03
2017-12-24T13:31:54.557Z,9.80
2017-12-24T13:34:22.889Z,9.57
2017-12-24T13:36:51.230Z,9.37
2017-12-24T13:39:19.553Z,8.73
2017-12-24T13:41:47.898Z,8.00
2017-12-24T13:44:16.227Z,8.47
2017-12-24T13:46:44.578Z,9.32
2017-12-24T13:49:12.893Z,8.80
2017-12-24T13:51:42.070Z,8.67
2017-12-24T13:54:10.453Z,7.83
2017-12-24T13:56:38.734Z,8.60
2017-12-24T13:59:07.063Z,8.27
2017-12-24T14:01:35.410Z,7.93
2017-12-24T14:04:03.730Z,7.87
2017-12-24T14:06:32.072Z,8.47
2017-12-24T14:09:00.402Z,32.40
2017-12-24T14:11:28.887Z,7.40
2017-12-24T14:13:57.273Z,7.70
2017-12-24T14:16:25.610Z,7.87
2017-12-24T14:18:53.939Z,7.03
2017-12-24T14:21:22.287Z,7.82
2017-12-24T14:23:50.606Z,7.10
2017-12-24T14:26:18.955Z,7.03
2017-12-24T14:28:47.278Z,6.37
2017-12-24T14:31:16.523Z,6.07
2017-12-24T14:33:44.842Z,6.40
2017-12-24T14:36:14.111Z,5.97
2017-12-24T14:38:42.440Z,6.37
2017-12-24T14:41:10.782Z,5.50
2017-12-24T14:43:44.461Z,6.90
2017-12-24T14:46:13.937Z,6.40
2017-12-24T14:48:42.359Z,7.43
2017-12-24T14:51:10.771Z,6.23
2017-12-24T14:53:39.095Z,7.83
2017-12-24T14:56:07.426Z,6.72
2017-12-24T14:58:35.771Z,7.37
2017-12-24T15:01:04.102Z,7.80
2017-12-24T15:03:32.450Z,7.40
2017-12-24T15:06:00.779Z,6.53
2017-12-24T15:08:29.131Z,7.37
2017-12-24T15:10:57.454Z,8.23
2017-12-24T15:13:25.810Z,8.80
2017-12-24T15:15:54.126Z,6.93
2017-12-24T15:18:22.476Z,8.17
2017-12-24T15:20:50.806Z,8.60
2017-12-24T15:23:19.146Z,9.23
2017-12-24T15:25:48.391Z,9.43
2017-12-24T15:28:16.742Z,8.60
2017-12-24T15:30:45.070Z,10.23
2017-12-24T15:33:13.434Z,9.63
2017-12-24T15:35:42.730Z,11.95
2017-12-24T15:38:11.086Z,12.83
2017-12-24T15:40:39.430Z,11.70
2017-12-24T15:43:07.781Z,12.17
2017-12-24T15:45:36.126Z,12.45
2017-12-24T15:48:04.483Z,11.77
2017-12-24T15:50:32.822Z,11.55
2017-12-24T15:53:01.171Z,14.33
2017-12-24T15:55:29.510Z,12.63
2017-12-24T15:57:57.861Z,14.20
2017-12-24T16:00:26.181Z,14.37
2017-12-24T16:02:54.538Z,13.62
2017-12-24T16:05:22.863Z,14.90
2017-12-24T16:07:51.210Z,15.50
2017-12-24T16:10:19.542Z,14.65
2017-12-24T16:12:47.898Z,15.60
2017-12-24T16:15:17.433Z,16.27
2017-12-24T16:17:45.791Z,16.60
2017-12-24T16:20:14.109Z,17.27
2017-12-24T16:22:42.466Z,17.20
2017-12-24T16:25:10.786Z,15.93
2017-12-24T16:27:39.134Z,17.10
2017-12-24T16:30:07.467Z,15.00
2017-12-24T16:32:35.815Z,15.37
2017-12-24T16:35:04.175Z,16.47
2017-12-24T16:37:32.537Z,15.45
2017-12-24T16:40:00.869Z,16.33
2017-12-24T16:42:29.242Z,17.80
2017-12-24T16:44:57.638Z,15.80
2017-12-24T16:47:25.978Z,16.48
2017-12-24T16:49:54.319Z,15.47
2017-12-24T16:52:22.675Z,16.10
2017-12-24T16:54:51.008Z,16.73
2017-12-24T16:57:19.362Z,16.17
2017-12-24T16:59:47.729Z,16.23
2017-12-24T17:02:16.054Z,16.37
2017-12-24T17:04:44.421Z,16.80
2017-12-24T17:07:12.745Z,17.20
2017-12-24T17:09:41.136Z,16.90
2017-12-24T17:12:09.474Z,16.50
2017-12-24T17:14:37.827Z,16.13
2017-12-24T17:17:06.171Z,18.30
2017-12-24T17:19:34.538Z,17.55
2017-12-24T17:22:03.371Z,16.70
2017-12-24T17:24:31.727Z,15.77
2017-12-24T17:27:00.066Z,17.55
2017-12-24T17:29:28.425Z,15.73
2017-12-24T17:31:56.762Z,17.17
2017-12-24T17:34:25.119Z,17.50
2017-12-24T17:36:53.454Z,13.70
2017-12-24T17:39:21.806Z,15.17
2017-12-24T17:41:50.146Z,18.73
2017-12-24T17:44:18.498Z,17.62
2017-12-24T17:46:46.868Z,15.53
2017-12-24T17:49:15.229Z,16.97
2017-12-24T17:51:43.564Z,16.27
2017-12-24T17:54:11.918Z,16.33
2017-12-24T17:56:40.263Z,15.10
2017-12-24T17:59:08.614Z,16.10
2017-12-24T18:01:36.955Z,15.32
2017-12-24T18:04:05.305Z,15.80
2017-12-24T18:06:33.641Z,16.67
2017-12-24T18:09:02.002Z,16.25
2017-12-24T18:11:30.857Z,15.60
2017-12-24T18:13:59.218Z,16.20
2017-12-24T18:16:27.554Z,17.10
2017-12-24T18:18:55.973Z,15.85
2017-12-24T18:21:24.254Z,14.60
2017-12-24T18:23:52.607Z,15.20
2017-12-24T18:26:20.942Z,17.27
2017-12-24T18:28:49.294Z,16.60
2017-12-24T18:31:18.489Z,15.38
2017-12-24T18:33:46.841Z,15.60
2017-12-24T18:36:15.182Z,15.83
2017-12-24T18:38:43.538Z,16.25
2017-12-24T18:41:11.886Z,16.83
2017-12-24T18:43:40.242Z,17.73
2017-12-24T18:46:08.579Z,18.15
2017-12-24T18:48:36.930Z,17.33
2017-12-24T18:51:06.135Z,19.60
2017-12-24T18:53:34.487Z,18.77
2017-12-24T18:56:02.818Z,19.23
2017-12-24T18:58:31.194Z,20.97
2017-12-24T19:00:59.595Z,21.43
2017-12-24T19:03:27.930Z,18.87
2017-12-24T19:05:57.170Z,19.90
2017-12-24T19:08:25.499Z,22.70
2017-12-24T19:10:54.615Z,22.67
2017-12-24T19:13:22.966Z,22.10
2017-12-24T19:15:51.750Z,23.98
2017-12-24T19:18:20.091Z,24.93
2017-12-24T19:20:48.516Z,23.27
2017-12-24T19:23:16.841Z,23.00
2017-12-24T19:25:46.114Z,22.80
2017-12-24T19:28:14.451Z,22.83
2017-12-24T19:30:43.642Z,20.95
2017-12-24T19:33:11.977Z,22.80
2017-12-24T19:35:41.233Z,22.60
2017-12-24T19:38:09.570Z,22.33
2017-12-24T19:40:37.922Z,23.77
2017-12-24T19:43:06.275Z,19.95
2017-12-24T19:45:35.582Z,21.57
2017-12-24T19:48:03.914Z,24.87
2017-12-24T19:50:32.271Z,22.30
2017-12-24T19:53:00.606Z,21.17
2017-12-24T19:55:29.920Z,24.67
2017-12-24T19:57:58.260Z,23.03
2017-12-24T20:00:26.617Z,21.60
2017-12-24T20:02:54.945Z,21.62
2017-12-24T20:05:23.298Z,21.92
2017-12-24T20:07:51.632Z,22.53
2017-12-24T20:10:19.982Z,20.33
2017-12-24T20:12:48.328Z,21.97
2017-12-24T20:15:17.646Z,22.00
2017-12-24T20:17:45.991Z,22.27
2017-12-24T20:20:14.347Z,19.73
2017-12-24T20:22:42.699Z,19.60
2017-12-24T20:25:11.059Z,20.20
2017-12-24T20:27:39.394Z,21.53
2017-12-24T20:30:07.774Z,19.58
2017-12-24T20:32:36.092Z,22.23
2017-12-24T20:35:04.443Z,19.93
2017-12-24T20:37:32.793Z,20.55
2017-12-24T20:40:01.199Z,17.83
2017-12-24T20:42:29.486Z,17.33
2017-12-24T20:44:57.846Z,17.62
2017-12-24T20:47:26.188Z,15.70
2017-12-24T20:49:54.543Z,15.40
2017-12-24T20:52:22.877Z,18.53
2017-12-24T20:54:51.230Z,15.80
2017-12-24T20:57:19.626Z,16.37
2017-12-24T20:59:47.918Z,16.00
2017-12-24T21:02:16.250Z,16.37
2017-12-24T21:04:44.610Z,15.57
2017-12-24T21:07:12.938Z,16.07
2017-12-24T21:09:41.270Z,15.20
2017-12-24T21:12:09.635Z,15.00
2017-12-24T21:14:37.970Z,13.50
2017-12-24T21:17:06.330Z,13.70
2017-12-24T21:19:34.662Z,16.33
2017-12-24T21:22:03.010Z,12.50
2017-12-24T21:24:31.343Z,13.03
2017-12-24T21:26:59.696Z,12.40
2017-12-24T21:29:28.025Z,13.17
2017-12-24T21:31:56.486Z,12.05
2017-12-24T21:34:24.794Z,10.10
2017-12-24T21:36:53.147Z,10.53
2017-12-24T21:39:21.474Z,10.87
2017-12-24T21:41:49.826Z,9.20
2017-12-24T21:44:18.146Z,9.20
2017-12-24T21:46:46.950Z,8.40
2017-12-24T21:49:15.274Z,8.60
2017-12-24T21:51:43.613Z,8.30
2017-12-24T21:54:11.934Z,8.15
2017-12-24T21:56:40.282Z,8.47
2017-12-24T21:59:08.602Z,8.83
2017-12-24T22:01:36.949Z,8.17
2017-12-24T22:04:05.280Z,10.33
2017-12-24T22:06:33.761Z,9.77
2017-12-24T22:09:02.082Z,10.30
2017-12-24T22:11:30.434Z,10.20
2017-12-24T22:13:58.761Z,9.88
2017-12-24T22:16:27.112Z,10.23
2017-12-24T22:18:55.432Z,9.50
2017-12-24T22:21:23.774Z,9.60
2017-12-24T22:23:52.102Z,10.37
2017-12-24T22:26:21.402Z,9.40
2017-12-24T22:28:49.726Z,9.27
2017-12-24T22:31:18.074Z,9.70
2017-12-24T22:33:46.397Z,9.85
2017-12-24T22:36:14.742Z,10.00
2017-12-24T22:38:43.074Z,9.63
2017-12-24T22:41:11.435Z,9.00
2017-12-24T22:43:39.753Z,9.07
2017-12-24T22:46:08.106Z,8.70
2017-12-24T22:48:36.429Z,8.47
2017-12-24T22:51:04.770Z,8.77
2017-12-24T22:53:33.106Z,7.93
2017-12-24T22:56:01.605Z,8.05
2017-12-24T22:58:29.935Z,7.27
2017-12-24T23:00:58.305Z,8.13
2017-12-24T23:03:26.825Z,7.60
2017-12-24T23:05:56.074Z,7.40
2017-12-24T23:08:24.408Z,7.80
2017-12-24T23:10:52.749Z,6.37
2017-12-24T23:13:21.128Z,7.67
2017-12-24T23:15:49.638Z,6.57
2017-12-24T23:18:17.977Z,6.15
2017-12-24T23:20:46.302Z,6.00
2017-12-24T23:23:14.676Z,6.13
2017-12-24T23:25:43.347Z,6.82
2017-12-24T23:28:11.698Z,6.67
2017-12-24T23:30:40.018Z,5.20
2017-12-24T23:33:08.357Z,7.47
2017-12-24T23:35:36.677Z,7.23
2017-12-24T23:38:05.018Z,6.47
2017-12-24T23:40:34.081Z,7.37
2017-12-24T23:43:02.422Z,6.23
2017-12-24T23:45:31.003Z,5.65
2017-12-24T23:47:59.357Z,5.70
2017-12-24T23:50:27.797Z,6.20
2017-12-24T23:52:56.157Z,7.50
2017-12-24T23:55:24.517Z,6.80
2017-12-24T23:57:52.861Z,6.87
